createdAt,value
2023-05-19T00:00:31.096Z,24.47
2023-05-19T00:03:01.426Z,24.49
2023-05-19T00:05:34.335Z,24.49
2023-05-19T00:08:04.878Z,24.50
2023-05-19T00:10:35.441Z,24.42
2023-05-19T00:13:07.440Z,24.39
2023-05-19T00:15:41.961Z,24.41
2023-05-19T00:18:14.180Z,24.40
2023-05-19T00:20:46.855Z,24.38
2023-05-19T00:23:16.405Z,24.38
2023-05-19T00:25:46.476Z,24.36
2023-05-19T00:28:16.507Z,24.34
2023-05-19T00:30:44.019Z,24.37
2023-05-19T00:33:13.638Z,24.36
2023-05-19T00:35:43.353Z,24.33
2023-05-19T00:38:13.512Z,24.34
2023-05-19T00:40:43.370Z,24.34
2023-05-19T00:43:10.825Z,24.31
2023-05-19T00:45:40.651Z,24.30
2023-05-19T00:48:13.273Z,24.29
2023-05-19T00:50:41.375Z,24.27
2023-05-19T00:53:11.928Z,24.34
2023-05-19T00:55:42.776Z,24.29
2023-05-19T00:58:18.763Z,24.29
2023-05-19T01:00:49.756Z,24.28
2023-05-19T01:03:20.682Z,24.27
2023-05-19T01:05:53.836Z,24.27
2023-05-19T01:08:21.495Z,24.31
2023-05-19T01:10:50.881Z,24.28
2023-05-19T01:13:20.601Z,24.34
2023-05-19T01:15:57.861Z,24.36
2023-05-19T01:18:49.382Z,24.41
2023-05-19T01:21:28.633Z,24.48
2023-05-19T01:24:05.095Z,24.50
2023-05-19T01:27:00.832Z,24.48
2023-05-19T01:29:43.968Z,24.53
2023-05-19T01:32:14.787Z,24.60
2023-05-19T01:34:46.578Z,24.58
2023-05-19T01:37:15.186Z,24.57
2023-05-19T01:39:45.699Z,24.63
2023-05-19T01:42:14.483Z,24.62
2023-05-19T01:44:44.500Z,24.62
2023-05-19T01:47:12.923Z,24.60
2023-05-19T01:49:42.691Z,24.66
2023-05-19T01:52:12.133Z,24.61
2023-05-19T01:54:44.704Z,24.66
2023-05-19T01:57:39.267Z,24.60
2023-05-19T02:00:37.634Z,24.69
2023-05-19T02:03:13.909Z,24.72
2023-05-19T02:05:44.154Z,24.71
2023-05-19T02:08:30.311Z,24.72
2023-05-19T02:11:07.691Z,24.80
2023-05-19T02:13:40.136Z,24.73
2023-05-19T02:16:08.397Z,24.74
2023-05-19T02:18:41.981Z,24.73
2023-05-19T02:21:13.775Z,24.72
2023-05-19T02:23:43.520Z,24.71
2023-05-19T02:26:13.814Z,24.80
2023-05-19T02:28:46.465Z,24.68
2023-05-19T02:31:13.804Z,24.65
2023-05-19T02:33:41.319Z,24.57
2023-05-19T02:36:14.499Z,24.58
2023-05-19T02:38:47.543Z,24.48
2023-05-19T02:41:18.817Z,24.40
2023-05-19T02:43:46.326Z,24.35
2023-05-19T02:46:13.670Z,24.34
2023-05-19T02:48:43.392Z,24.26
2023-05-19T02:51:10.713Z,24.26
2023-05-19T02:53:42.725Z,24.23
2023-05-19T02:56:15.468Z,24.23
2023-05-19T02:58:46.112Z,24.26
2023-05-19T03:01:14.381Z,24.23
2023-05-19T03:03:41.749Z,24.20
2023-05-19T03:06:15.627Z,24.20
2023-05-19T03:08:45.475Z,24.20
2023-05-19T03:11:16.011Z,24.16
2023-05-19T03:13:45.822Z,24.18
2023-05-19T03:16:14.110Z,24.16
2023-05-19T03:18:47.361Z,24.10
2023-05-19T03:21:14.710Z,24.13
2023-05-19T03:23:45.468Z,24.14
2023-05-19T03:26:15.366Z,24.14
2023-05-19T03:28:45.346Z,24.11
2023-05-19T03:31:17.822Z,24.09
2023-05-19T03:33:48.150Z,24.11
2023-05-19T03:36:18.569Z,24.09
2023-05-19T03:38:51.127Z,24.10
2023-05-19T03:41:21.352Z,24.09
2023-05-19T03:43:50.936Z,24.05
2023-05-19T03:46:21.161Z,24.07
2023-05-19T03:48:53.532Z,24.05
2023-05-19T03:51:43.272Z,24.05
2023-05-19T03:54:30.129Z,24.08
2023-05-19T03:57:04.831Z,24.07
2023-05-19T03:59:37.616Z,24.04
2023-05-19T04:02:16.977Z,24.02
2023-05-19T04:04:44.623Z,24.02
2023-05-19T04:07:14.360Z,24.00
2023-05-19T04:09:50.639Z,24.01
2023-05-19T04:12:18.087Z,24.01
2023-05-19T04:14:49.137Z,24.04
2023-05-19T04:17:23.738Z,24.04
2023-05-19T04:19:53.463Z,24.02
2023-05-19T04:22:27.902Z,23.98
2023-05-19T04:24:58.326Z,23.91
2023-05-19T04:27:27.821Z,23.89
2023-05-19T04:29:58.229Z,23.87
2023-05-19T04:32:25.702Z,23.86
2023-05-19T04:34:58.916Z,23.91
2023-05-19T04:37:29.935Z,23.85
2023-05-19T04:40:00.859Z,23.86
2023-05-19T04:42:33.089Z,23.92
2023-05-19T04:45:03.643Z,23.91
2023-05-19T04:47:36.876Z,23.89
2023-05-19T04:50:05.362Z,23.92
2023-05-19T04:52:35.005Z,23.92
2023-05-19T04:55:04.561Z,23.88
2023-05-19T04:57:32.422Z,23.89
2023-05-19T05:00:00.474Z,23.90
2023-05-19T05:02:37.207Z,23.86
2023-05-19T05:05:07.965Z,23.94
2023-05-19T05:07:35.307Z,23.93
2023-05-19T05:10:09.320Z,23.92
2023-05-19T05:12:42.536Z,23.91
2023-05-19T05:15:11.227Z,23.89
2023-05-19T05:17:39.064Z,23.84
2023-05-19T05:20:11.517Z,23.83
2023-05-19T05:22:39.273Z,23.84
2023-05-19T05:25:12.600Z,23.83
2023-05-19T05:27:43.458Z,23.91
2023-05-19T05:30:16.965Z,23.92
2023-05-19T05:32:47.008Z,23.87
2023-05-19T05:35:32.568Z,23.86
2023-05-19T05:38:03.231Z,23.90
2023-05-19T05:40:35.602Z,23.91
2023-05-19T05:43:07.592Z,23.90
2023-05-19T05:45:45.550Z,23.94
2023-05-19T05:48:16.272Z,23.92
2023-05-19T05:50:48.663Z,23.91
2023-05-19T05:53:24.920Z,23.91
2023-05-19T05:55:57.776Z,23.92
2023-05-19T05:58:29.091Z,23.90
2023-05-19T06:00:58.068Z,24.01
2023-05-19T06:03:28.669Z,23.97
2023-05-19T06:06:00.031Z,24.03
2023-05-19T06:08:28.078Z,24.02
2023-05-19T06:10:58.881Z,24.11
2023-05-19T06:13:31.482Z,24.04
2023-05-19T06:16:01.718Z,24.07
2023-05-19T06:18:39.458Z,24.10
2023-05-19T06:21:10.484Z,24.15
2023-05-19T06:23:41.332Z,24.24
2023-05-19T06:26:13.690Z,24.29
2023-05-19T06:28:45.252Z,24.51
2023-05-19T06:31:15.201Z,24.61
2023-05-19T06:33:51.405Z,24.60
2023-05-19T06:36:19.661Z,24.64
2023-05-19T06:38:47.903Z,24.73
2023-05-19T06:41:15.787Z,24.73
2023-05-19T06:43:45.981Z,24.76
2023-05-19T06:46:18.093Z,24.75
2023-05-19T06:48:48.986Z,24.90
2023-05-19T06:51:24.570Z,24.96
2023-05-19T06:53:56.511Z,24.96
2023-05-19T06:56:29.046Z,24.92
2023-05-19T06:59:04.759Z,24.89
2023-05-19T07:01:42.560Z,24.97
2023-05-19T07:04:11.012Z,25.00
2023-05-19T07:06:41.792Z,24.99
2023-05-19T07:09:15.352Z,25.07
2023-05-19T07:11:49.423Z,25.13
2023-05-19T07:14:22.906Z,25.13
2023-05-19T07:16:56.685Z,25.21
2023-05-19T07:19:32.159Z,25.21
2023-05-19T07:21:59.876Z,25.17
2023-05-19T07:24:32.721Z,25.24
2023-05-19T07:27:05.653Z,25.40
2023-05-19T07:29:35.564Z,25.53
2023-05-19T07:32:03.279Z,25.55
2023-05-19T07:34:31.028Z,25.55
2023-05-19T07:36:59.680Z,25.52
2023-05-19T07:39:29.835Z,25.47
2023-05-19T07:41:57.870Z,25.50
2023-05-19T07:44:27.301Z,25.54
2023-05-19T07:46:55.320Z,25.62
2023-05-19T07:49:23.661Z,25.72
2023-05-19T07:51:52.800Z,25.74
2023-05-19T07:54:21.440Z,25.70
2023-05-19T07:56:49.312Z,25.70
2023-05-19T07:59:17.075Z,25.70
2023-05-19T08:01:44.778Z,25.69
2023-05-19T08:04:14.590Z,25.69
2023-05-19T08:06:44.524Z,25.57
2023-05-19T08:09:12.392Z,25.63
2023-05-19T08:11:40.167Z,25.75
2023-05-19T08:14:10.961Z,25.92
2023-05-19T08:16:39.365Z,25.68
2023-05-19T08:19:07.561Z,25.64
2023-05-19T08:21:36.676Z,25.72
2023-05-19T08:24:04.470Z,25.49
2023-05-19T08:26:32.042Z,25.60
2023-05-19T08:28:59.888Z,25.66
2023-05-19T08:31:27.782Z,25.61
2023-05-19T08:33:55.302Z,25.77
2023-05-19T08:36:23.403Z,25.87
2023-05-19T08:38:51.028Z,25.59
2023-05-19T08:41:19.028Z,25.46
2023-05-19T08:43:47.178Z,25.48
2023-05-19T08:46:18.537Z,25.48
2023-05-19T08:48:53.852Z,25.51
2023-05-19T08:51:51.158Z,25.54
2023-05-19T08:54:20.922Z,25.35
2023-05-19T08:56:48.846Z,25.17
2023-05-19T08:59:21.804Z,25.13
2023-05-19T09:01:50.833Z,25.26
2023-05-19T09:04:19.141Z,25.31
2023-05-19T09:06:50.471Z,25.23
2023-05-19T09:09:20.908Z,25.30
2023-05-19T09:11:48.927Z,25.26
2023-05-19T09:14:16.863Z,25.30
2023-05-19T09:16:48.310Z,25.28
2023-05-19T09:19:20.845Z,25.28
2023-05-19T09:22:01.293Z,25.35
2023-05-19T09:24:29.897Z,25.30
2023-05-19T09:27:02.383Z,25.34
2023-05-19T09:29:30.139Z,25.38
2023-05-19T09:32:01.771Z,25.30
2023-05-19T09:34:31.900Z,25.24
2023-05-19T09:37:05.279Z,25.19
2023-05-19T09:39:35.664Z,25.31
2023-05-19T09:42:05.424Z,25.28
2023-05-19T09:44:38.489Z,25.35
2023-05-19T09:47:08.759Z,25.28
2023-05-19T09:49:48.886Z,25.39
2023-05-19T09:52:16.603Z,25.33
2023-05-19T09:54:51.811Z,25.34
2023-05-19T09:57:27.273Z,25.34
2023-05-19T10:00:00.344Z,25.36
2023-05-19T10:02:32.264Z,25.26
2023-05-19T10:05:01.479Z,25.15
2023-05-19T10:07:35.127Z,25.25
2023-05-19T10:10:10.129Z,25.32
2023-05-19T10:12:41.467Z,25.37
2023-05-19T10:15:11.579Z,25.54
2023-05-19T10:17:42.527Z,25.41
2023-05-19T10:20:14.953Z,25.43
2023-05-19T10:22:47.139Z,25.41
2023-05-19T10:25:16.964Z,25.49
2023-05-19T10:27:57.690Z,25.45
2023-05-19T10:30:56.276Z,25.38
2023-05-19T10:33:42.398Z,25.45
2023-05-19T10:36:21.991Z,25.35
2023-05-19T10:39:16.743Z,25.22
2023-05-19T10:41:54.367Z,25.29
2023-05-19T10:44:58.121Z,25.36
2023-05-19T10:47:30.027Z,25.28
2023-05-19T10:50:06.981Z,25.28
2023-05-19T10:52:44.760Z,25.21
2023-05-19T10:55:17.827Z,25.09
2023-05-19T10:57:56.940Z,25.11
2023-05-19T11:00:33.565Z,25.10
2023-05-19T11:03:24.491Z,25.00
2023-05-19T11:06:14.542Z,24.95
2023-05-19T11:08:45.091Z,24.90
2023-05-19T11:11:17.146Z,24.99
2023-05-19T11:13:57.831Z,24.96
2023-05-19T11:16:34.735Z,24.93
2023-05-19T11:19:02.662Z,24.84
2023-05-19T11:21:43.694Z,24.79
2023-05-19T11:24:31.695Z,24.74
2023-05-19T11:27:20.407Z,24.78
2023-05-19T11:29:48.790Z,24.75
2023-05-19T11:32:26.425Z,24.74
2023-05-19T11:34:58.343Z,24.68
2023-05-19T11:37:29.187Z,24.68
2023-05-19T11:40:07.472Z,24.66
2023-05-19T11:42:37.197Z,24.78
2023-05-19T11:45:05.677Z,24.81
2023-05-19T11:47:42.613Z,24.88
2023-05-19T11:50:21.750Z,24.95
2023-05-19T11:52:50.751Z,25.13
2023-05-19T11:55:19.360Z,25.29
2023-05-19T11:58:03.855Z,25.43
2023-05-19T12:00:40.324Z,25.59
2023-05-19T12:03:14.365Z,25.56
2023-05-19T12:05:48.961Z,25.57
2023-05-19T12:08:21.835Z,25.56
2023-05-19T12:10:52.412Z,25.59
2023-05-19T12:13:22.962Z,25.60
2023-05-19T12:16:02.074Z,25.57
2023-05-19T12:18:40.443Z,25.53
2023-05-19T12:21:11.441Z,25.47
2023-05-19T12:23:41.664Z,25.47
2023-05-19T12:26:10.746Z,25.42
2023-05-19T12:28:42.223Z,25.41
2023-05-19T12:31:15.821Z,25.41
2023-05-19T12:33:48.712Z,25.41
2023-05-19T12:36:19.564Z,25.41
2023-05-19T12:38:47.915Z,25.42
2023-05-19T12:41:15.690Z,25.44
2023-05-19T12:43:45.636Z,25.52
2023-05-19T12:46:19.200Z,25.53
2023-05-19T12:48:50.193Z,25.61
2023-05-19T12:51:19.255Z,25.53
2023-05-19T12:53:49.896Z,25.60
2023-05-19T12:56:20.345Z,25.62
2023-05-19T12:58:54.783Z,25.58
2023-05-19T13:01:26.565Z,25.51
2023-05-19T13:04:02.141Z,25.49
2023-05-19T13:06:32.949Z,25.47
2023-05-19T13:09:05.329Z,25.48
2023-05-19T13:11:36.370Z,25.52
2023-05-19T13:14:09.276Z,25.55
2023-05-19T13:16:40.114Z,25.52
2023-05-19T13:19:24.801Z,25.51
2023-05-19T13:21:56.068Z,25.53
2023-05-19T13:24:23.674Z,25.56
2023-05-19T13:26:55.249Z,25.54
2023-05-19T13:29:28.483Z,25.58
2023-05-19T13:32:01.193Z,25.67
2023-05-19T13:34:29.488Z,25.60
2023-05-19T13:36:59.747Z,25.71
2023-05-19T13:39:30.115Z,25.80
2023-05-19T13:42:03.003Z,25.74
2023-05-19T13:44:33.895Z,25.81
2023-05-19T13:47:05.052Z,25.78
2023-05-19T13:49:35.988Z,25.87
2023-05-19T13:52:08.259Z,25.87
2023-05-19T13:54:38.130Z,25.88
2023-05-19T13:57:12.063Z,25.83
2023-05-19T13:59:57.173Z,25.82
2023-05-19T14:02:40.046Z,25.81
2023-05-19T14:05:08.736Z,25.77
2023-05-19T14:07:39.297Z,25.77
2023-05-19T14:10:07.803Z,25.81
2023-05-19T14:12:52.808Z,25.80
2023-05-19T14:15:29.394Z,25.78
2023-05-19T14:17:59.289Z,25.74
2023-05-19T14:20:30.432Z,25.75
2023-05-19T14:22:58.935Z,25.64
2023-05-19T14:25:31.572Z,25.72
2023-05-19T14:28:02.089Z,25.65
2023-05-19T14:30:32.691Z,25.72
2023-05-19T14:33:02.862Z,25.75
2023-05-19T14:35:38.686Z,25.83
2023-05-19T14:38:09.228Z,25.89
2023-05-19T14:40:37.982Z,25.86
2023-05-19T14:43:05.722Z,25.82
2023-05-19T14:45:33.823Z,25.73
2023-05-19T14:48:01.799Z,25.76
2023-05-19T14:50:34.807Z,25.80
2023-05-19T14:53:02.712Z,25.98
2023-05-19T14:55:33.496Z,25.88
2023-05-19T14:58:01.416Z,25.99
2023-05-19T15:00:29.190Z,25.99
2023-05-19T15:02:59.470Z,25.97
2023-05-19T15:05:27.353Z,25.91
2023-05-19T15:07:55.130Z,25.72
2023-05-19T15:10:25.317Z,25.58
2023-05-19T15:12:53.721Z,25.57
2023-05-19T15:15:21.551Z,25.69
2023-05-19T15:17:49.459Z,25.68
2023-05-19T15:20:17.961Z,25.62
2023-05-19T15:22:46.153Z,25.59
2023-05-19T15:25:14.174Z,25.65
2023-05-19T15:27:45.333Z,25.74
2023-05-19T15:30:14.698Z,25.79
2023-05-19T15:32:46.081Z,25.84
2023-05-19T15:35:14.162Z,25.82
2023-05-19T15:37:42.184Z,25.78
2023-05-19T15:40:11.037Z,25.83
2023-05-19T15:42:39.094Z,25.75
2023-05-19T15:45:10.894Z,25.69
2023-05-19T15:47:38.997Z,25.68
2023-05-19T15:50:14.867Z,25.69
2023-05-19T15:52:43.176Z,25.53
2023-05-19T15:55:11.252Z,25.51
2023-05-19T15:57:39.464Z,25.41
2023-05-19T16:00:08.150Z,25.43
2023-05-19T16:02:36.270Z,25.47
2023-05-19T16:05:04.361Z,25.51
2023-05-19T16:07:32.191Z,25.38
2023-05-19T16:09:59.961Z,25.34
2023-05-19T16:12:28.022Z,25.35
2023-05-19T16:14:55.654Z,25.26
2023-05-19T16:17:23.277Z,25.25
2023-05-19T16:19:50.939Z,25.23
2023-05-19T16:22:18.781Z,25.24
2023-05-19T16:24:46.467Z,25.18
2023-05-19T16:27:14.021Z,25.13
2023-05-19T16:29:41.784Z,25.05
2023-05-19T16:32:09.363Z,25.02
2023-05-19T16:34:36.952Z,25.15
2023-05-19T16:37:04.847Z,25.09
2023-05-19T16:39:32.932Z,25.07
2023-05-19T16:42:00.689Z,25.06
2023-05-19T16:44:28.303Z,25.02
2023-05-19T16:46:55.943Z,25.01
2023-05-19T16:49:23.503Z,25.07
2023-05-19T16:51:53.042Z,25.01
2023-05-19T16:54:21.278Z,24.92
2023-05-19T16:56:50.088Z,24.93
2023-05-19T16:59:17.646Z,24.88
2023-05-19T17:01:45.263Z,24.89
2023-05-19T17:04:13.248Z,24.90
2023-05-19T17:06:40.941Z,24.95
2023-05-19T17:09:08.487Z,24.91
2023-05-19T17:11:42.249Z,24.89
2023-05-19T17:14:10.029Z,24.83
2023-05-19T17:16:57.968Z,24.79
2023-05-19T17:19:25.405Z,24.77
2023-05-19T17:21:56.272Z,24.76
2023-05-19T17:24:28.878Z,24.75
2023-05-19T17:26:58.660Z,24.74
2023-05-19T17:29:29.463Z,24.74
2023-05-19T17:31:59.414Z,24.70
2023-05-19T17:34:29.324Z,24.67
2023-05-19T17:36:59.346Z,24.68
2023-05-19T17:39:26.867Z,24.66
2023-05-19T17:41:54.612Z,24.66
2023-05-19T17:44:24.808Z,24.64
2023-05-19T17:46:52.428Z,24.62
2023-05-19T17:49:22.955Z,24.64
2023-05-19T17:51:51.005Z,24.66
2023-05-19T17:54:21.337Z,24.65
2023-05-19T17:56:54.769Z,24.62
2023-05-19T17:59:23.464Z,24.59
2023-05-19T18:01:51.789Z,24.58
2023-05-19T18:04:19.998Z,24.58
2023-05-19T18:06:50.024Z,24.59
2023-05-19T18:09:19.978Z,24.57
2023-05-19T18:11:49.660Z,24.57
2023-05-19T18:14:17.882Z,24.57
2023-05-19T18:16:49.680Z,24.56
2023-05-19T18:19:17.359Z,24.57
2023-05-19T18:21:47.768Z,24.57
2023-05-19T18:24:18.024Z,24.56
2023-05-19T18:26:48.100Z,24.56
2023-05-19T18:29:21.478Z,24.54
2023-05-19T18:31:49.606Z,24.55
2023-05-19T18:34:17.715Z,24.57
2023-05-19T18:36:45.629Z,24.57
2023-05-19T18:39:15.369Z,24.53
2023-05-19T18:41:43.716Z,24.55
2023-05-19T18:44:16.539Z,24.53
2023-05-19T18:46:46.713Z,24.52
2023-05-19T18:49:14.499Z,24.54
2023-05-19T18:51:42.560Z,24.52
2023-05-19T18:54:12.540Z,24.50
2023-05-19T18:56:41.406Z,24.47
2023-05-19T18:59:10.055Z,24.47
2023-05-19T19:01:41.078Z,24.46
2023-05-19T19:04:11.331Z,24.48
2023-05-19T19:06:39.029Z,24.48
2023-05-19T19:09:09.787Z,24.46
2023-05-19T19:11:40.596Z,24.43
2023-05-19T19:14:10.882Z,24.44
2023-05-19T19:16:41.336Z,24.46
2023-05-19T19:19:09.994Z,24.43
2023-05-19T19:21:40.608Z,24.44
2023-05-19T19:24:08.362Z,24.39
2023-05-19T19:26:41.564Z,24.40
2023-05-19T19:29:12.278Z,24.41
2023-05-19T19:31:39.899Z,24.44
2023-05-19T19:34:11.275Z,24.40
2023-05-19T19:36:41.373Z,24.39
2023-05-19T19:39:12.011Z,24.39
2023-05-19T19:41:40.980Z,24.39
2023-05-19T19:44:11.333Z,24.39
2023-05-19T19:46:42.468Z,24.38
2023-05-19T19:49:10.468Z,24.36
2023-05-19T19:51:38.180Z,24.35
2023-05-19T19:54:08.232Z,24.33
2023-05-19T19:56:38.497Z,24.33
2023-05-19T19:59:13.864Z,24.36
2023-05-19T20:01:44.034Z,24.36
2023-05-19T20:04:14.685Z,24.35
2023-05-19T20:06:47.810Z,24.35
2023-05-19T20:09:16.213Z,24.34
2023-05-19T20:11:43.899Z,24.37
2023-05-19T20:14:11.700Z,24.40
2023-05-19T20:16:41.796Z,24.38
2023-05-19T20:19:11.927Z,24.35
2023-05-19T20:21:39.842Z,24.38
2023-05-19T20:24:07.572Z,24.40
2023-05-19T20:26:35.441Z,24.40
2023-05-19T20:29:05.440Z,24.41
2023-05-19T20:31:35.701Z,24.38
2023-05-19T20:34:03.904Z,24.35
2023-05-19T20:36:32.000Z,24.35
2023-05-19T20:38:59.898Z,24.39
2023-05-19T20:41:27.957Z,24.37
2023-05-19T20:43:58.100Z,24.36
2023-05-19T20:46:27.121Z,24.36
2023-05-19T20:48:55.129Z,24.37
2023-05-19T20:51:27.415Z,24.33
2023-05-19T20:54:00.932Z,24.34
2023-05-19T20:56:31.074Z,24.36
2023-05-19T20:58:58.689Z,24.33
2023-05-19T21:01:27.067Z,24.32
2023-05-19T21:03:56.954Z,24.33
2023-05-19T21:06:25.485Z,24.29
2023-05-19T21:08:55.845Z,24.27
2023-05-19T21:11:23.938Z,24.27
2023-05-19T21:13:54.800Z,24.28
2023-05-19T21:16:23.107Z,24.34
2023-05-19T21:18:50.442Z,24.28
2023-05-19T21:21:18.116Z,24.25
2023-05-19T21:23:48.393Z,24.26
2023-05-19T21:26:19.079Z,24.28
2023-05-19T21:28:47.259Z,24.28
2023-05-19T21:31:17.253Z,24.25
2023-05-19T21:33:47.944Z,24.29
2023-05-19T21:36:16.715Z,24.25
2023-05-19T21:38:46.696Z,24.23
2023-05-19T21:41:19.764Z,24.23
2023-05-19T21:43:53.179Z,24.21
2023-05-19T21:46:21.134Z,24.21
2023-05-19T21:48:50.932Z,24.20
2023-05-19T21:51:18.845Z,24.20
2023-05-19T21:53:46.692Z,24.24
2023-05-19T21:56:17.046Z,24.23
2023-05-19T21:58:44.674Z,24.25
2023-05-19T22:01:13.261Z,24.26
2023-05-19T22:03:43.859Z,24.22
2023-05-19T22:06:14.074Z,24.20
2023-05-19T22:08:41.870Z,24.23
2023-05-19T22:11:09.802Z,24.22
2023-05-19T22:13:41.168Z,24.19
2023-05-19T22:16:09.236Z,24.23
2023-05-19T22:18:36.976Z,24.23
2023-05-19T22:21:08.078Z,24.23
2023-05-19T22:23:41.810Z,24.20
2023-05-19T22:26:12.595Z,24.20
2023-05-19T22:28:40.331Z,24.24
2023-05-19T22:31:08.001Z,24.20
2023-05-19T22:33:35.950Z,24.21
2023-05-19T22:36:03.959Z,24.20
2023-05-19T22:38:31.694Z,24.17
2023-05-19T22:40:59.469Z,24.17
2023-05-19T22:43:27.286Z,24.18
2023-05-19T22:45:57.286Z,24.16
2023-05-19T22:48:25.306Z,24.18
2023-05-19T22:50:55.961Z,24.18
2023-05-19T22:53:26.090Z,24.17
2023-05-19T22:55:56.179Z,24.16
2023-05-19T22:58:29.214Z,24.15
2023-05-19T23:00:57.328Z,24.11
2023-05-19T23:03:27.930Z,24.10
2023-05-19T23:05:58.601Z,24.14
2023-05-19T23:08:31.670Z,24.15
2023-05-19T23:11:02.494Z,24.16
2023-05-19T23:13:33.993Z,24.15
2023-05-19T23:16:01.684Z,24.13
2023-05-19T23:18:29.370Z,24.09
2023-05-19T23:21:00.179Z,24.09
2023-05-19T23:23:29.224Z,24.09
2023-05-19T23:25:56.993Z,24.05
2023-05-19T23:28:27.206Z,24.08
2023-05-19T23:30:55.478Z,24.05
2023-05-19T23:33:23.071Z,24.07
2023-05-19T23:35:50.896Z,24.11
2023-05-19T23:38:21.014Z,24.04
2023-05-19T23:40:48.828Z,24.04
2023-05-19T23:43:16.586Z,24.06
2023-05-19T23:45:44.290Z,24.06
2023-05-19T23:48:12.161Z,24.07
2023-05-19T23:50:39.834Z,24.09
2023-05-19T23:53:08.003Z,24.11
2023-05-19T23:55:38.850Z,24.09
2023-05-19T23:58:09.319Z,24.07
